sensor_id;sensor_type;location;lat;lon;timestamp;P1;durP1;ratioP1;P2;durP2;ratioP2
34565;SDS011;20803;42.676;26.348;2022-08-19T00:00:13;10.80;;;9.47;;
34565;SDS011;20803;42.676;26.348;2022-08-19T00:02:39;11.03;;;9.80;;
34565;SDS011;20803;42.676;26.348;2022-08-19T00:05:06;11.17;;;9.20;;
34565;SDS011;20803;42.676;26.348;2022-08-19T00:07:33;11.70;;;9.70;;
34565;SDS011;20803;42.676;26.348;2022-08-19T00:09:59;11.23;;;8.97;;
34565;SDS011;20803;42.676;26.348;2022-08-19T00:12:24;12.30;;;9.93;;
34565;SDS011;20803;42.676;26.348;2022-08-19T00:14:50;10.70;;;9.00;;
34565;SDS011;20803;42.676;26.348;2022-08-19T00:17:15;13.67;;;9.87;;
34565;SDS011;20803;42.676;26.348;2022-08-19T00:19:41;12.60;;;9.97;;
34565;SDS011;20803;42.676;26.348;2022-08-19T00:22:06;10.10;;;8.73;;
34565;SDS011;20803;42.676;26.348;2022-08-19T00:24:34;9.83;;;8.87;;
34565;SDS011;20803;42.676;26.348;2022-08-19T00:27:00;11.10;;;9.33;;
34565;SDS011;20803;42.676;26.348;2022-08-19T00:29:27;10.13;;;9.17;;
34565;SDS011;20803;42.676;26.348;2022-08-19T00:31:53;11.27;;;9.23;;
34565;SDS011;20803;42.676;26.348;2022-08-19T00:34:21;9.93;;;9.03;;
34565;SDS011;20803;42.676;26.348;2022-08-19T00:36:47;10.90;;;9.60;;
34565;SDS011;20803;42.676;26.348;2022-08-19T00:39:14;10.10;;;9.03;;
34565;SDS011;20803;42.676;26.348;2022-08-19T00:41:40;13.70;;;9.67;;
34565;SDS011;20803;42.676;26.348;2022-08-19T00:46:39;10.67;;;9.57;;
34565;SDS011;20803;42.676;26.348;2022-08-19T00:49:14;14.47;;;9.97;;
34565;SDS011;20803;42.676;26.348;2022-08-19T00:51:47;11.23;;;9.23;;
34565;SDS011;20803;42.676;26.348;2022-08-19T00:54:16;12.17;;;9.70;;
34565;SDS011;20803;42.676;26.348;2022-08-19T00:56:42;11.50;;;9.47;;
34565;SDS011;20803;42.676;26.348;2022-08-19T00:59:09;14.20;;;9.17;;
34565;SDS011;20803;42.676;26.348;2022-08-19T01:01:39;11.17;;;8.57;;
34565;SDS011;20803;42.676;26.348;2022-08-19T01:04:07;10.97;;;9.50;;
34565;SDS011;20803;42.676;26.348;2022-08-19T01:06:33;11.53;;;9.67;;
34565;SDS011;20803;42.676;26.348;2022-08-19T01:09:01;12.73;;;9.20;;
34565;SDS011;20803;42.676;26.348;2022-08-19T01:11:27;12.83;;;9.07;;
34565;SDS011;20803;42.676;26.348;2022-08-19T01:13:54;13.67;;;9.20;;
34565;SDS011;20803;42.676;26.348;2022-08-19T01:16:21;9.70;;;8.80;;
34565;SDS011;20803;42.676;26.348;2022-08-19T01:18:49;10.13;;;8.97;;
34565;SDS011;20803;42.676;26.348;2022-08-19T01:23:49;13.27;;;10.63;;
34565;SDS011;20803;42.676;26.348;2022-08-19T01:26:16;12.27;;;9.83;;
34565;SDS011;20803;42.676;26.348;2022-08-19T01:28:44;11.60;;;10.27;;
34565;SDS011;20803;42.676;26.348;2022-08-19T01:31:13;16.43;;;10.53;;
34565;SDS011;20803;42.676;26.348;2022-08-19T01:33:41;11.67;;;10.57;;
34565;SDS011;20803;42.676;26.348;2022-08-19T01:36:08;11.57;;;10.43;;
34565;SDS011;20803;42.676;26.348;2022-08-19T01:38:39;13.53;;;10.33;;
34565;SDS011;20803;42.676;26.348;2022-08-19T01:41:06;11.53;;;10.43;;
34565;SDS011;20803;42.676;26.348;2022-08-19T01:43:32;13.80;;;10.77;;
34565;SDS011;20803;42.676;26.348;2022-08-19T01:45:58;12.57;;;11.10;;
34565;SDS011;20803;42.676;26.348;2022-08-19T01:48:24;15.97;;;10.80;;
34565;SDS011;20803;42.676;26.348;2022-08-19T01:50:49;15.47;;;11.07;;
34565;SDS011;20803;42.676;26.348;2022-08-19T01:53:15;13.90;;;10.57;;
34565;SDS011;20803;42.676;26.348;2022-08-19T01:55:41;16.13;;;11.33;;
34565;SDS011;20803;42.676;26.348;2022-08-19T01:58:19;11.87;;;10.67;;
34565;SDS011;20803;42.676;26.348;2022-08-19T02:00:47;12.53;;;9.90;;
34565;SDS011;20803;42.676;26.348;2022-08-19T02:03:13;12.17;;;10.50;;
34565;SDS011;20803;42.676;26.348;2022-08-19T02:05:41;12.27;;;10.53;;
34565;SDS011;20803;42.676;26.348;2022-08-19T02:08:07;11.53;;;10.30;;
34565;SDS011;20803;42.676;26.348;2022-08-19T02:10:33;11.60;;;10.40;;
34565;SDS011;20803;42.676;26.348;2022-08-19T02:13:03;12.13;;;10.37;;
34565;SDS011;20803;42.676;26.348;2022-08-19T02:15:28;11.83;;;10.63;;
34565;SDS011;20803;42.676;26.348;2022-08-19T02:17:53;13.87;;;11.40;;
34565;SDS011;20803;42.676;26.348;2022-08-19T02:20:19;12.97;;;10.67;;
34565;SDS011;20803;42.676;26.348;2022-08-19T02:22:44;11.50;;;10.30;;
34565;SDS011;20803;42.676;26.348;2022-08-19T02:25:11;13.13;;;10.10;;
34565;SDS011;20803;42.676;26.348;2022-08-19T02:27:37;14.17;;;10.63;;
34565;SDS011;20803;42.676;26.348;2022-08-19T02:30:09;11.90;;;9.87;;
34565;SDS011;20803;42.676;26.348;2022-08-19T02:32:37;10.63;;;9.53;;
34565;SDS011;20803;42.676;26.348;2022-08-19T02:35:04;13.33;;;9.93;;
34565;SDS011;20803;42.676;26.348;2022-08-19T02:37:30;13.33;;;10.30;;
34565;SDS011;20803;42.676;26.348;2022-08-19T02:40:13;12.27;;;9.93;;
34565;SDS011;20803;42.676;26.348;2022-08-19T02:42:40;11.97;;;10.20;;
34565;SDS011;20803;42.676;26.348;2022-08-19T02:45:06;10.83;;;9.73;;
34565;SDS011;20803;42.676;26.348;2022-08-19T02:47:32;12.23;;;9.53;;
34565;SDS011;20803;42.676;26.348;2022-08-19T02:50:00;13.57;;;9.70;;
34565;SDS011;20803;42.676;26.348;2022-08-19T02:52:27;14.37;;;9.63;;
34565;SDS011;20803;42.676;26.348;2022-08-19T02:54:53;10.83;;;9.83;;
34565;SDS011;20803;42.676;26.348;2022-08-19T02:57:18;11.67;;;10.53;;
34565;SDS011;20803;42.676;26.348;2022-08-19T02:59:44;11.67;;;10.13;;
34565;SDS011;20803;42.676;26.348;2022-08-19T03:02:09;15.47;;;10.03;;
34565;SDS011;20803;42.676;26.348;2022-08-19T03:04:34;10.73;;;9.60;;
34565;SDS011;20803;42.676;26.348;2022-08-19T03:07:00;13.33;;;11.40;;
34565;SDS011;20803;42.676;26.348;2022-08-19T03:09:25;14.93;;;11.40;;
34565;SDS011;20803;42.676;26.348;2022-08-19T03:11:51;12.27;;;11.07;;
34565;SDS011;20803;42.676;26.348;2022-08-19T03:14:16;14.87;;;10.90;;
34565;SDS011;20803;42.676;26.348;2022-08-19T03:16:44;12.00;;;10.57;;
34565;SDS011;20803;42.676;26.348;2022-08-19T03:19:12;15.87;;;11.53;;
34565;SDS011;20803;42.676;26.348;2022-08-19T03:21:38;13.73;;;10.80;;
34565;SDS011;20803;42.676;26.348;2022-08-19T03:24:06;13.00;;;11.60;;
34565;SDS011;20803;42.676;26.348;2022-08-19T03:26:33;17.20;;;12.83;;
34565;SDS011;20803;42.676;26.348;2022-08-19T03:29:03;12.30;;;11.03;;
34565;SDS011;20803;42.676;26.348;2022-08-19T03:31:29;14.63;;;12.53;;
34565;SDS011;20803;42.676;26.348;2022-08-19T03:33:56;16.03;;;12.43;;
34565;SDS011;20803;42.676;26.348;2022-08-19T03:36:22;15.13;;;11.90;;
34565;SDS011;20803;42.676;26.348;2022-08-19T03:38:52;14.20;;;12.50;;
34565;SDS011;20803;42.676;26.348;2022-08-19T03:41:22;15.33;;;11.27;;
34565;SDS011;20803;42.676;26.348;2022-08-19T03:43:56;13.57;;;11.27;;
34565;SDS011;20803;42.676;26.348;2022-08-19T03:46:27;19.27;;;11.07;;
34565;SDS011;20803;42.676;26.348;2022-08-19T03:48:55;12.67;;;11.37;;
34565;SDS011;20803;42.676;26.348;2022-08-19T03:51:29;18.30;;;12.53;;
34565;SDS011;20803;42.676;26.348;2022-08-19T03:53:57;12.50;;;10.97;;
34565;SDS011;20803;42.676;26.348;2022-08-19T03:56:24;12.20;;;10.90;;
34565;SDS011;20803;42.676;26.348;2022-08-19T03:58:52;18.33;;;11.00;;
34565;SDS011;20803;42.676;26.348;2022-08-19T04:01:20;13.33;;;11.13;;
34565;SDS011;20803;42.676;26.348;2022-08-19T04:03:47;13.57;;;11.47;;
34565;SDS011;20803;42.676;26.348;2022-08-19T04:08:40;19.97;;;11.70;;
34565;SDS011;20803;42.676;26.348;2022-08-19T04:11:10;19.73;;;11.63;;
34565;SDS011;20803;42.676;26.348;2022-08-19T04:13:37;22.27;;;11.77;;
34565;SDS011;20803;42.676;26.348;2022-08-19T04:16:03;19.50;;;12.03;;
34565;SDS011;20803;42.676;26.348;2022-08-19T04:18:29;18.10;;;11.83;;
34565;SDS011;20803;42.676;26.348;2022-08-19T04:20:56;15.77;;;11.00;;
34565;SDS011;20803;42.676;26.348;2022-08-19T04:23:21;12.80;;;10.83;;
34565;SDS011;20803;42.676;26.348;2022-08-19T04:25:47;18.57;;;11.20;;
34565;SDS011;20803;42.676;26.348;2022-08-19T04:28:13;13.63;;;9.70;;
34565;SDS011;20803;42.676;26.348;2022-08-19T04:30:39;16.87;;;10.97;;
34565;SDS011;20803;42.676;26.348;2022-08-19T04:33:07;15.77;;;11.00;;
34565;SDS011;20803;42.676;26.348;2022-08-19T04:35:39;12.37;;;9.93;;
34565;SDS011;20803;42.676;26.348;2022-08-19T04:38:07;13.10;;;9.93;;
34565;SDS011;20803;42.676;26.348;2022-08-19T04:40:33;16.70;;;9.40;;
34565;SDS011;20803;42.676;26.348;2022-08-19T04:43:17;12.23;;;8.83;;
34565;SDS011;20803;42.676;26.348;2022-08-19T04:45:43;12.33;;;10.10;;
34565;SDS011;20803;42.676;26.348;2022-08-19T04:48:09;13.20;;;9.20;;
34565;SDS011;20803;42.676;26.348;2022-08-19T04:50:36;16.63;;;9.30;;
34565;SDS011;20803;42.676;26.348;2022-08-19T04:53:01;17.27;;;9.17;;
34565;SDS011;20803;42.676;26.348;2022-08-19T04:55:27;15.40;;;9.30;;
34565;SDS011;20803;42.676;26.348;2022-08-19T04:57:53;9.77;;;8.87;;
34565;SDS011;20803;42.676;26.348;2022-08-19T05:00:19;9.93;;;8.93;;
34565;SDS011;20803;42.676;26.348;2022-08-19T05:02:44;16.43;;;8.70;;
34565;SDS011;20803;42.676;26.348;2022-08-19T05:05:10;12.50;;;8.87;;
34565;SDS011;20803;42.676;26.348;2022-08-19T05:07:35;13.93;;;8.97;;
34565;SDS011;20803;42.676;26.348;2022-08-19T05:10:01;13.47;;;8.97;;
34565;SDS011;20803;42.676;26.348;2022-08-19T05:12:29;12.60;;;8.03;;
34565;SDS011;20803;42.676;26.348;2022-08-19T05:14:55;11.23;;;8.37;;
34565;SDS011;20803;42.676;26.348;2022-08-19T05:17:21;11.37;;;8.70;;
34565;SDS011;20803;42.676;26.348;2022-08-19T05:19:47;18.17;;;9.13;;
34565;SDS011;20803;42.676;26.348;2022-08-19T05:22:31;13.27;;;8.83;;
34565;SDS011;20803;42.676;26.348;2022-08-19T05:25:06;11.13;;;8.10;;
34565;SDS011;20803;42.676;26.348;2022-08-19T05:27:35;15.13;;;8.13;;
34565;SDS011;20803;42.676;26.348;2022-08-19T05:30:00;15.73;;;8.60;;
34565;SDS011;20803;42.676;26.348;2022-08-19T05:32:26;11.43;;;8.37;;
34565;SDS011;20803;42.676;26.348;2022-08-19T05:34:52;12.57;;;7.83;;
34565;SDS011;20803;42.676;26.348;2022-08-19T05:37:18;11.23;;;7.67;;
34565;SDS011;20803;42.676;26.348;2022-08-19T05:39:43;11.47;;;8.47;;
34565;SDS011;20803;42.676;26.348;2022-08-19T05:42:09;12.60;;;8.17;;
34565;SDS011;20803;42.676;26.348;2022-08-19T05:44:37;13.07;;;9.53;;
34565;SDS011;20803;42.676;26.348;2022-08-19T05:47:08;22.60;;;8.13;;
34565;SDS011;20803;42.676;26.348;2022-08-19T05:49:33;11.63;;;7.80;;
34565;SDS011;20803;42.676;26.348;2022-08-19T05:52:01;9.37;;;7.93;;
34565;SDS011;20803;42.676;26.348;2022-08-19T05:54:30;11.07;;;8.27;;
34565;SDS011;20803;42.676;26.348;2022-08-19T05:56:56;21.13;;;13.47;;
34565;SDS011;20803;42.676;26.348;2022-08-19T05:59:22;11.70;;;8.33;;
34565;SDS011;20803;42.676;26.348;2022-08-19T06:01:49;11.03;;;8.20;;
34565;SDS011;20803;42.676;26.348;2022-08-19T06:04:16;17.00;;;10.27;;
34565;SDS011;20803;42.676;26.348;2022-08-19T06:06:43;14.77;;;8.97;;
34565;SDS011;20803;42.676;26.348;2022-08-19T06:09:10;15.10;;;10.20;;
34565;SDS011;20803;42.676;26.348;2022-08-19T06:14:07;26.03;;;14.00;;
34565;SDS011;20803;42.676;26.348;2022-08-19T06:16:35;17.57;;;10.87;;
34565;SDS011;20803;42.676;26.348;2022-08-19T06:19:05;13.43;;;8.30;;
34565;SDS011;20803;42.676;26.348;2022-08-19T06:21:33;11.77;;;8.60;;
34565;SDS011;20803;42.676;26.348;2022-08-19T06:24:02;10.07;;;7.37;;
34565;SDS011;20803;42.676;26.348;2022-08-19T06:26:28;16.07;;;8.70;;
34565;SDS011;20803;42.676;26.348;2022-08-19T06:28:54;16.30;;;8.53;;
34565;SDS011;20803;42.676;26.348;2022-08-19T06:31:23;11.10;;;8.60;;
34565;SDS011;20803;42.676;26.348;2022-08-19T06:33:50;15.60;;;8.90;;
34565;SDS011;20803;42.676;26.348;2022-08-19T06:38:49;13.00;;;8.03;;
34565;SDS011;20803;42.676;26.348;2022-08-19T06:41:14;17.90;;;8.47;;
34565;SDS011;20803;42.676;26.348;2022-08-19T06:43:40;11.50;;;9.30;;
34565;SDS011;20803;42.676;26.348;2022-08-19T06:46:13;10.23;;;7.77;;
34565;SDS011;20803;42.676;26.348;2022-08-19T06:48:40;9.53;;;8.43;;
34565;SDS011;20803;42.676;26.348;2022-08-19T06:51:06;13.37;;;8.07;;
34565;SDS011;20803;42.676;26.348;2022-08-19T06:53:32;15.97;;;8.20;;
34565;SDS011;20803;42.676;26.348;2022-08-19T06:55:58;11.00;;;8.10;;
34565;SDS011;20803;42.676;26.348;2022-08-19T06:58:28;8.27;;;6.50;;
34565;SDS011;20803;42.676;26.348;2022-08-19T07:00:58;7.70;;;6.63;;
34565;SDS011;20803;42.676;26.348;2022-08-19T07:03:25;6.77;;;6.07;;
34565;SDS011;20803;42.676;26.348;2022-08-19T07:05:51;9.33;;;6.87;;
34565;SDS011;20803;42.676;26.348;2022-08-19T07:08:17;8.10;;;7.00;;
34565;SDS011;20803;42.676;26.348;2022-08-19T07:10:43;9.40;;;7.23;;
34565;SDS011;20803;42.676;26.348;2022-08-19T07:13:09;9.33;;;7.30;;
34565;SDS011;20803;42.676;26.348;2022-08-19T07:15:36;7.80;;;6.20;;
34565;SDS011;20803;42.676;26.348;2022-08-19T07:18:02;7.10;;;6.40;;
34565;SDS011;20803;42.676;26.348;2022-08-19T07:20:28;9.70;;;6.93;;
34565;SDS011;20803;42.676;26.348;2022-08-19T07:22:53;9.43;;;6.17;;
34565;SDS011;20803;42.676;26.348;2022-08-19T07:25:19;9.27;;;6.80;;
34565;SDS011;20803;42.676;26.348;2022-08-19T07:27:48;6.93;;;6.17;;
34565;SDS011;20803;42.676;26.348;2022-08-19T07:30:14;7.33;;;6.63;;
34565;SDS011;20803;42.676;26.348;2022-08-19T07:32:39;7.33;;;6.13;;
34565;SDS011;20803;42.676;26.348;2022-08-19T07:35:05;10.53;;;7.20;;
34565;SDS011;20803;42.676;26.348;2022-08-19T07:37:32;9.70;;;5.73;;
34565;SDS011;20803;42.676;26.348;2022-08-19T07:39:57;7.23;;;5.57;;
34565;SDS011;20803;42.676;26.348;2022-08-19T07:42:22;8.50;;;6.30;;
34565;SDS011;20803;42.676;26.348;2022-08-19T07:44:48;7.07;;;6.37;;
34565;SDS011;20803;42.676;26.348;2022-08-19T07:47:13;6.50;;;5.90;;
34565;SDS011;20803;42.676;26.348;2022-08-19T07:49:40;8.93;;;6.27;;
34565;SDS011;20803;42.676;26.348;2022-08-19T07:52:07;6.80;;;6.00;;
34565;SDS011;20803;42.676;26.348;2022-08-19T07:54:35;8.03;;;5.90;;
34565;SDS011;20803;42.676;26.348;2022-08-19T07:57:03;8.50;;;6.73;;
34565;SDS011;20803;42.676;26.348;2022-08-19T07:59:29;6.87;;;5.63;;
34565;SDS011;20803;42.676;26.348;2022-08-19T08:01:55;6.87;;;6.00;;
34565;SDS011;20803;42.676;26.348;2022-08-19T08:04:20;7.03;;;5.57;;
34565;SDS011;20803;42.676;26.348;2022-08-19T08:07:05;7.03;;;5.67;;
34565;SDS011;20803;42.676;26.348;2022-08-19T08:09:51;8.70;;;5.80;;
34565;SDS011;20803;42.676;26.348;2022-08-19T08:12:19;6.67;;;5.40;;
34565;SDS011;20803;42.676;26.348;2022-08-19T08:14:49;8.23;;;5.70;;
34565;SDS011;20803;42.676;26.348;2022-08-19T08:17:18;5.87;;;5.00;;
34565;SDS011;20803;42.676;26.348;2022-08-19T08:19:45;7.20;;;4.93;;
34565;SDS011;20803;42.676;26.348;2022-08-19T08:22:11;7.47;;;5.23;;
34565;SDS011;20803;42.676;26.348;2022-08-19T08:25:07;7.67;;;4.93;;
34565;SDS011;20803;42.676;26.348;2022-08-19T08:27:41;5.97;;;5.37;;
34565;SDS011;20803;42.676;26.348;2022-08-19T08:30:09;6.87;;;4.87;;
34565;SDS011;20803;42.676;26.348;2022-08-19T08:32:36;6.20;;;5.57;;
34565;SDS011;20803;42.676;26.348;2022-08-19T08:35:06;6.70;;;5.13;;
34565;SDS011;20803;42.676;26.348;2022-08-19T08:37:33;6.60;;;5.43;;
34565;SDS011;20803;42.676;26.348;2022-08-19T08:39:58;6.40;;;5.57;;
34565;SDS011;20803;42.676;26.348;2022-08-19T08:42:34;6.37;;;5.63;;
34565;SDS011;20803;42.676;26.348;2022-08-19T08:45:08;6.50;;;5.60;;
34565;SDS011;20803;42.676;26.348;2022-08-19T08:47:40;6.90;;;6.20;;
34565;SDS011;20803;42.676;26.348;2022-08-19T08:52:41;5.97;;;5.37;;
34565;SDS011;20803;42.676;26.348;2022-08-19T08:55:12;6.17;;;5.57;;
34565;SDS011;20803;42.676;26.348;2022-08-19T09:00:16;8.03;;;5.60;;
34565;SDS011;20803;42.676;26.348;2022-08-19T09:02:44;6.27;;;5.67;;
34565;SDS011;20803;42.676;26.348;2022-08-19T09:05:10;5.53;;;5.03;;
34565;SDS011;20803;42.676;26.348;2022-08-19T09:13:20;6.63;;;5.40;;
34565;SDS011;20803;42.676;26.348;2022-08-19T09:16:03;7.43;;;5.57;;
34565;SDS011;20803;42.676;26.348;2022-08-19T09:18:38;5.17;;;4.67;;
34565;SDS011;20803;42.676;26.348;2022-08-19T09:21:05;8.53;;;5.77;;
34565;SDS011;20803;42.676;26.348;2022-08-19T09:23:30;8.50;;;5.80;;
34565;SDS011;20803;42.676;26.348;2022-08-19T09:25:56;6.03;;;5.13;;
34565;SDS011;20803;42.676;26.348;2022-08-19T09:28:21;5.87;;;5.27;;
34565;SDS011;20803;42.676;26.348;2022-08-19T09:30:46;7.33;;;5.27;;
34565;SDS011;20803;42.676;26.348;2022-08-19T09:33:12;8.13;;;5.10;;
34565;SDS011;20803;42.676;26.348;2022-08-19T09:35:37;4.93;;;4.40;;
34565;SDS011;20803;42.676;26.348;2022-08-19T09:38:03;7.27;;;5.07;;
34565;SDS011;20803;42.676;26.348;2022-08-19T09:40:28;7.30;;;5.17;;
34565;SDS011;20803;42.676;26.348;2022-08-19T09:42:55;7.33;;;5.47;;
34565;SDS011;20803;42.676;26.348;2022-08-19T09:45:22;7.30;;;5.50;;
34565;SDS011;20803;42.676;26.348;2022-08-19T09:47:51;8.60;;;5.50;;
34565;SDS011;20803;42.676;26.348;2022-08-19T09:50:17;5.53;;;4.97;;
34565;SDS011;20803;42.676;26.348;2022-08-19T09:52:43;8.40;;;4.80;;
34565;SDS011;20803;42.676;26.348;2022-08-19T09:55:10;5.03;;;4.47;;
34565;SDS011;20803;42.676;26.348;2022-08-19T09:57:36;5.80;;;5.17;;
34565;SDS011;20803;42.676;26.348;2022-08-19T10:00:03;6.23;;;5.30;;
34565;SDS011;20803;42.676;26.348;2022-08-19T10:02:30;8.57;;;5.37;;
34565;SDS011;20803;42.676;26.348;2022-08-19T10:04:55;5.47;;;4.90;;
34565;SDS011;20803;42.676;26.348;2022-08-19T10:07:40;5.63;;;4.67;;
34565;SDS011;20803;42.676;26.348;2022-08-19T10:10:06;7.73;;;5.40;;
34565;SDS011;20803;42.676;26.348;2022-08-19T10:12:33;5.77;;;5.23;;
34565;SDS011;20803;42.676;26.348;2022-08-19T10:14:59;7.70;;;5.33;;
34565;SDS011;20803;42.676;26.348;2022-08-19T10:17:25;6.37;;;5.00;;
34565;SDS011;20803;42.676;26.348;2022-08-19T10:19:51;7.10;;;5.27;;
34565;SDS011;20803;42.676;26.348;2022-08-19T10:22:17;5.63;;;4.87;;
34565;SDS011;20803;42.676;26.348;2022-08-19T10:24:43;6.70;;;4.77;;
34565;SDS011;20803;42.676;26.348;2022-08-19T10:27:10;6.50;;;4.70;;
34565;SDS011;20803;42.676;26.348;2022-08-19T10:29:37;7.70;;;5.33;;
34565;SDS011;20803;42.676;26.348;2022-08-19T10:32:04;6.47;;;5.07;;
34565;SDS011;20803;42.676;26.348;2022-08-19T10:34:32;7.07;;;5.20;;
34565;SDS011;20803;42.676;26.348;2022-08-19T10:36:59;7.63;;;4.97;;
34565;SDS011;20803;42.676;26.348;2022-08-19T10:39:30;6.23;;;5.13;;
34565;SDS011;20803;42.676;26.348;2022-08-19T10:41:56;7.13;;;5.67;;
34565;SDS011;20803;42.676;26.348;2022-08-19T10:44:22;6.53;;;5.80;;
34565;SDS011;20803;42.676;26.348;2022-08-19T10:46:48;7.00;;;4.70;;
34565;SDS011;20803;42.676;26.348;2022-08-19T10:49:14;6.33;;;5.73;;
34565;SDS011;20803;42.676;26.348;2022-08-19T10:51:40;8.53;;;6.03;;
34565;SDS011;20803;42.676;26.348;2022-08-19T10:54:24;6.20;;;4.80;;
34565;SDS011;20803;42.676;26.348;2022-08-19T10:57:10;9.77;;;5.20;;
34565;SDS011;20803;42.676;26.348;2022-08-19T10:59:36;6.43;;;5.13;;
34565;SDS011;20803;42.676;26.348;2022-08-19T11:02:03;7.70;;;5.17;;
34565;SDS011;20803;42.676;26.348;2022-08-19T11:04:30;7.57;;;5.50;;
34565;SDS011;20803;42.676;26.348;2022-08-19T11:06:56;8.97;;;5.43;;
34565;SDS011;20803;42.676;26.348;2022-08-19T11:09:23;7.27;;;5.20;;
34565;SDS011;20803;42.676;26.348;2022-08-19T11:11:50;8.57;;;5.77;;
34565;SDS011;20803;42.676;26.348;2022-08-19T11:14:18;7.27;;;5.73;;
34565;SDS011;20803;42.676;26.348;2022-08-19T11:16:45;9.87;;;5.43;;
34565;SDS011;20803;42.676;26.348;2022-08-19T11:19:11;5.97;;;5.23;;
34565;SDS011;20803;42.676;26.348;2022-08-19T11:21:42;9.53;;;5.40;;
34565;SDS011;20803;42.676;26.348;2022-08-19T11:24:10;6.33;;;5.00;;
34565;SDS011;20803;42.676;26.348;2022-08-19T11:26:39;7.10;;;5.87;;
34565;SDS011;20803;42.676;26.348;2022-08-19T11:29:06;5.57;;;4.97;;
34565;SDS011;20803;42.676;26.348;2022-08-19T11:31:36;6.50;;;5.60;;
34565;SDS011;20803;42.676;26.348;2022-08-19T11:34:04;7.80;;;5.30;;
34565;SDS011;20803;42.676;26.348;2022-08-19T11:36:32;6.17;;;5.17;;
34565;SDS011;20803;42.676;26.348;2022-08-19T11:38:58;7.07;;;5.57;;
34565;SDS011;20803;42.676;26.348;2022-08-19T11:41:24;7.57;;;4.90;;
34565;SDS011;20803;42.676;26.348;2022-08-19T11:43:50;6.17;;;5.17;;
34565;SDS011;20803;42.676;26.348;2022-08-19T11:46:17;9.80;;;5.70;;
34565;SDS011;20803;42.676;26.348;2022-08-19T11:48:43;7.60;;;4.97;;
34565;SDS011;20803;42.676;26.348;2022-08-19T11:51:16;6.40;;;5.27;;
34565;SDS011;20803;42.676;26.348;2022-08-19T11:53:43;6.70;;;5.63;;
34565;SDS011;20803;42.676;26.348;2022-08-19T11:56:09;10.73;;;5.77;;
34565;SDS011;20803;42.676;26.348;2022-08-19T11:58:36;6.07;;;5.47;;
34565;SDS011;20803;42.676;26.348;2022-08-19T12:01:05;5.77;;;5.17;;
34565;SDS011;20803;42.676;26.348;2022-08-19T12:03:32;6.87;;;5.23;;
34565;SDS011;20803;42.676;26.348;2022-08-19T12:05:58;7.57;;;5.13;;
34565;SDS011;20803;42.676;26.348;2022-08-19T12:08:27;5.70;;;5.20;;
34565;SDS011;20803;42.676;26.348;2022-08-19T12:10:53;8.43;;;5.10;;
34565;SDS011;20803;42.676;26.348;2022-08-19T12:13:18;6.20;;;5.63;;
34565;SDS011;20803;42.676;26.348;2022-08-19T12:15:44;6.27;;;5.50;;
34565;SDS011;20803;42.676;26.348;2022-08-19T12:18:12;6.47;;;5.30;;
34565;SDS011;20803;42.676;26.348;2022-08-19T12:20:39;7.60;;;6.13;;
34565;SDS011;20803;42.676;26.348;2022-08-19T12:23:07;6.53;;;5.93;;
34565;SDS011;20803;42.676;26.348;2022-08-19T12:25:37;9.30;;;5.30;;
34565;SDS011;20803;42.676;26.348;2022-08-19T12:28:16;6.43;;;5.47;;
34565;SDS011;20803;42.676;26.348;2022-08-19T12:30:46;6.57;;;5.93;;
34565;SDS011;20803;42.676;26.348;2022-08-19T12:33:12;9.37;;;5.87;;
34565;SDS011;20803;42.676;26.348;2022-08-19T12:35:39;8.30;;;5.70;;
34565;SDS011;20803;42.676;26.348;2022-08-19T12:38:06;6.30;;;5.43;;
34565;SDS011;20803;42.676;26.348;2022-08-19T12:40:31;6.87;;;5.83;;
34565;SDS011;20803;42.676;26.348;2022-08-19T12:42:57;6.43;;;5.83;;
34565;SDS011;20803;42.676;26.348;2022-08-19T12:45:22;7.13;;;5.97;;
34565;SDS011;20803;42.676;26.348;2022-08-19T12:47:47;8.33;;;6.10;;
34565;SDS011;20803;42.676;26.348;2022-08-19T12:50:13;8.10;;;5.87;;
34565;SDS011;20803;42.676;26.348;2022-08-19T12:52:38;9.07;;;6.10;;
34565;SDS011;20803;42.676;26.348;2022-08-19T12:55:07;6.63;;;5.30;;
34565;SDS011;20803;42.676;26.348;2022-08-19T12:57:34;8.33;;;5.50;;
34565;SDS011;20803;42.676;26.348;2022-08-19T13:00:02;7.07;;;6.00;;
34565;SDS011;20803;42.676;26.348;2022-08-19T13:02:35;5.90;;;5.30;;
34565;SDS011;20803;42.676;26.348;2022-08-19T13:05:02;5.67;;;5.17;;
34565;SDS011;20803;42.676;26.348;2022-08-19T13:07:28;8.57;;;5.70;;
34565;SDS011;20803;42.676;26.348;2022-08-19T13:09:55;6.80;;;5.77;;
34565;SDS011;20803;42.676;26.348;2022-08-19T13:12:21;7.63;;;5.50;;
34565;SDS011;20803;42.676;26.348;2022-08-19T13:14:46;10.97;;;5.90;;
34565;SDS011;20803;42.676;26.348;2022-08-19T13:17:15;9.17;;;5.10;;
34565;SDS011;20803;42.676;26.348;2022-08-19T13:19:41;8.70;;;5.73;;
34565;SDS011;20803;42.676;26.348;2022-08-19T13:22:07;6.87;;;5.30;;
34565;SDS011;20803;42.676;26.348;2022-08-19T13:24:32;6.77;;;6.07;;
34565;SDS011;20803;42.676;26.348;2022-08-19T13:26:58;7.57;;;6.77;;
34565;SDS011;20803;42.676;26.348;2022-08-19T13:29:25;9.10;;;5.40;;
34565;SDS011;20803;42.676;26.348;2022-08-19T13:32:09;9.40;;;5.90;;
34565;SDS011;20803;42.676;26.348;2022-08-19T13:34:52;7.23;;;5.90;;
34565;SDS011;20803;42.676;26.348;2022-08-19T13:37:18;9.23;;;5.93;;
34565;SDS011;20803;42.676;26.348;2022-08-19T13:40:03;6.90;;;5.57;;
34565;SDS011;20803;42.676;26.348;2022-08-19T13:42:30;5.90;;;5.27;;
34565;SDS011;20803;42.676;26.348;2022-08-19T13:44:56;6.63;;;5.50;;
34565;SDS011;20803;42.676;26.348;2022-08-19T13:47:21;9.33;;;6.03;;
34565;SDS011;20803;42.676;26.348;2022-08-19T13:49:47;7.97;;;5.77;;
34565;SDS011;20803;42.676;26.348;2022-08-19T13:52:14;6.83;;;5.87;;
34565;SDS011;20803;42.676;26.348;2022-08-19T13:54:40;9.57;;;6.10;;
34565;SDS011;20803;42.676;26.348;2022-08-19T13:57:06;6.83;;;6.07;;
34565;SDS011;20803;42.676;26.348;2022-08-19T13:59:31;9.23;;;6.03;;
34565;SDS011;20803;42.676;26.348;2022-08-19T14:01:58;7.37;;;5.60;;
34565;SDS011;20803;42.676;26.348;2022-08-19T14:04:24;9.87;;;6.27;;
34565;SDS011;20803;42.676;26.348;2022-08-19T14:06:50;7.03;;;6.37;;
34565;SDS011;20803;42.676;26.348;2022-08-19T14:09:15;7.37;;;5.43;;
34565;SDS011;20803;42.676;26.348;2022-08-19T14:11:40;8.43;;;6.13;;
34565;SDS011;20803;42.676;26.348;2022-08-19T14:14:06;9.30;;;5.30;;
34565;SDS011;20803;42.676;26.348;2022-08-19T14:16:31;6.37;;;5.53;;
34565;SDS011;20803;42.676;26.348;2022-08-19T14:18:57;9.83;;;6.07;;
34565;SDS011;20803;42.676;26.348;2022-08-19T14:21:23;7.73;;;6.67;;
34565;SDS011;20803;42.676;26.348;2022-08-19T14:23:50;6.83;;;5.50;;
34565;SDS011;20803;42.676;26.348;2022-08-19T14:26:17;7.77;;;6.13;;
34565;SDS011;20803;42.676;26.348;2022-08-19T14:28:44;6.40;;;5.50;;
34565;SDS011;20803;42.676;26.348;2022-08-19T14:31:11;9.63;;;6.23;;
34565;SDS011;20803;42.676;26.348;2022-08-19T14:33:38;7.50;;;6.37;;
34565;SDS011;20803;42.676;26.348;2022-08-19T14:36:04;8.63;;;5.80;;
34565;SDS011;20803;42.676;26.348;2022-08-19T14:38:30;11.27;;;6.20;;
34565;SDS011;20803;42.676;26.348;2022-08-19T14:41:05;7.23;;;6.40;;
34565;SDS011;20803;42.676;26.348;2022-08-19T14:43:32;6.27;;;5.63;;
34565;SDS011;20803;42.676;26.348;2022-08-19T14:45:58;6.20;;;5.57;;
34565;SDS011;20803;42.676;26.348;2022-08-19T14:48:24;8.40;;;5.60;;
34565;SDS011;20803;42.676;26.348;2022-08-19T14:50:49;9.90;;;6.10;;